Time;durP1;ratioP1;P1;durP2;ratioP2;P2;SDS_P1;SDS_P2;PMS_P1;PMS_P2;Temp;Humidity;BMP_temperature;BMP_pressure;BME280_temperature;BME280_humidity;BME280_pressure;Samples;Min_cycle;Max_cycle;Signal;HPM_P1;HPM_P2
2023/10/26 00:02:17;;;;;;;219.30;48.67;;;;;;;;;;6240408;28;20091;-62
2023/10/26 00:05:18;;;;;;;103.65;44.40;;;;;;;;;;6242280;28;20083;-62
2023/10/26 00:08:18;;;;;;;89.88;42.35;;;;;;;;;;6243011;28;20077;-63
2023/10/26 00:11:19;;;;;;;109.70;44.60;;;;;;;;;;6242490;28;20430;-62
2023/10/26 00:14:21;;;;;;;91.38;41.13;;;;;;;;;;6241062;28;20493;-63
2023/10/26 00:17:22;;;;;;;100.47;39.92;;;;;;;;;;6241268;28;20060;-62
2023/10/26 00:20:23;;;;;;;125.05;39.33;;;;;;;;;;6240962;28;20049;-62
2023/10/26 00:23:24;;;;;;;83.55;38.90;;;;;;;;;;6241470;28;20534;-62
2023/10/26 00:26:24;;;;;;;107.32;45.85;;;;;;;;;;6243131;28;20492;-62
2023/10/26 00:29:25;;;;;;;80.82;39.97;;;;;;;;;;6242229;28;20462;-62
2023/10/26 00:32:26;;;;;;;89.28;40.20;;;;;;;;;;6241710;28;20053;-62
2023/10/26 00:35:27;;;;;;;90.20;40.65;;;;;;;;;;6242995;28;20047;-62
2023/10/26 00:38:27;;;;;;;147.13;40.47;;;;;;;;;;6242842;28;20377;-62
2023/10/26 00:41:28;;;;;;;123.28;37.85;;;;;;;;;;6242251;28;20045;-63
2023/10/26 00:44:28;;;;;;;91.13;41.05;;;;;;;;;;6242608;28;20060;-63
2023/10/26 00:47:31;;;;;;;103.63;40.30;;;;;;;;;;6242788;28;20173;-62
2023/10/26 00:50:31;;;;;;;;;;;;;;;;;;6240664;28;20484;-62
2023/10/26 00:53:32;;;;;;;90.20;40.10;;;;;;;;;;6241349;28;19975;-62
2023/10/26 00:56:35;;;;;;;90.18;39.75;;;;;;;;;;6240178;28;20090;-62
2023/10/26 00:59:39;;;;;;;91.95;39.28;;;;;;;;;;6243244;28;20121;-63
2023/10/26 01:02:40;;;;;;;83.50;36.38;;;;;;;;;;6241238;28;20137;-62
2023/10/26 01:05:41;;;;;;;76.68;36.08;;;;;;;;;;6245868;28;20072;-62
2023/10/26 01:08:41;;;;;;;83.63;35.53;;;;;;;;;;6239383;28;20102;-63
2023/10/26 01:11:43;;;;;;;79.15;37.85;;;;;;;;;;6241633;28;20313;-63
2023/10/26 01:14:43;;;;;;;83.77;37.87;;;;;;;;;;6240116;28;20481;-62
2023/10/26 01:17:44;;;;;;;83.55;36.88;;;;;;;;;;6242145;28;20132;-62
2023/10/26 01:20:45;;;;;;;83.15;36.92;;;;;;;;;;6241176;28;20049;-62
2023/10/26 01:23:45;;;;;;;75.78;33.47;;;;;;;;;;6242937;28;20114;-62
2023/10/26 01:26:46;;;;;;;73.95;34.22;;;;;;;;;;6239524;28;20049;-62
2023/10/26 01:29:47;;;;;;;72.22;32.22;;;;;;;;;;6241202;28;20045;-61
2023/10/26 01:32:47;;;;;;;77.00;34.85;;;;;;;;;;6241905;28;20482;-62
2023/10/26 01:35:48;;;;;;;80.75;37.58;;;;;;;;;;6242067;28;20052;-62
2023/10/26 01:38:48;;;;;;;85.53;37.85;;;;;;;;;;6240084;28;20053;-62
2023/10/26 01:41:49;;;;;;;86.93;38.53;;;;;;;;;;6239190;28;20392;-62
2023/10/26 01:44:50;;;;;;;84.65;38.38;;;;;;;;;;6242098;28;20041;-62
2023/10/26 01:47:52;;;;;;;86.67;39.97;;;;;;;;;;6242382;28;20568;-62
2023/10/26 01:50:53;;;;;;;84.10;39.63;;;;;;;;;;6240694;28;20049;-63
2023/10/26 01:53:53;;;;;;;74.47;34.63;;;;;;;;;;6243109;28;20131;-62
2023/10/26 01:56:54;;;;;;;75.45;35.13;;;;;;;;;;6244491;28;20045;-63
2023/10/26 01:59:55;;;;;;;72.85;34.22;;;;;;;;;;6246164;28;20046;-62
2023/10/26 02:02:56;;;;;;;70.43;34.13;;;;;;;;;;6246367;28;20411;-63
2023/10/26 02:05:57;;;;;;;71.32;33.22;;;;;;;;;;6243584;28;20575;-62
2023/10/26 02:08:57;;;;;;;77.05;33.67;;;;;;;;;;6246976;28;20063;-62
2023/10/26 02:11:58;;;;;;;72.82;33.13;;;;;;;;;;6244755;28;20045;-62
2023/10/26 02:14:59;;;;;;;70.88;33.95;;;;;;;;;;6246331;28;20042;-63
2023/10/26 02:17:59;;;;;;;106.68;64.68;;;;;;;;;;6245651;28;20485;-63
2023/10/26 02:21:01;;;;;;;75.95;37.97;;;;;;;;;;6244680;28;20041;-62
2023/10/26 02:24:02;;;;;;;;;;;;;;;;;;6246898;28;20069;-63
2023/10/26 02:27:03;;;;;;;77.60;32.40;;;;;;;;;;6245429;28;20299;-62
2023/10/26 02:30:04;;;;;;;67.82;32.85;;;;;;;;;;6245068;28;20059;-62
2023/10/26 02:33:04;;;;;;;71.25;33.20;;;;;;;;;;6244598;28;20071;-63
2023/10/26 02:36:06;;;;;;;69.63;31.00;;;;;;;;;;6245074;28;20049;-63
2023/10/26 02:39:06;;;;;;;67.80;30.80;;;;;;;;;;6246107;28;20168;-65
2023/10/26 02:42:08;;;;;;;62.20;28.27;;;;;;;;;;6242035;28;20058;-63
2023/10/26 02:45:09;;;;;;;67.05;29.75;;;;;;;;;;6243723;28;20423;-62
2023/10/26 02:48:10;;;;;;;67.40;29.50;;;;;;;;;;6244680;28;20041;-62
2023/10/26 02:51:10;;;;;;;58.08;27.65;;;;;;;;;;6242914;28;20800;-63
2023/10/26 02:54:11;;;;;;;59.85;28.55;;;;;;;;;;6243002;28;20072;-63
2023/10/26 02:57:14;;;;;;;55.72;28.30;;;;;;;;;;6244566;28;20037;-63
2023/10/26 03:00:16;;;;;;;57.60;27.05;;;;;;;;;;6244909;28;20087;-62
2023/10/26 03:03:16;;;;;;;62.28;28.83;;;;;;;;;;6243082;28;20068;-62
2023/10/26 03:06:17;;;;;;;58.95;27.17;;;;;;;;;;6244289;28;20072;-63
2023/10/26 03:09:17;;;;;;;58.22;26.15;;;;;;;;;;6244686;28;20081;-63
2023/10/26 03:12:19;;;;;;;58.55;28.67;;;;;;;;;;6241374;28;20152;-62
2023/10/26 03:15:20;;;;;;;62.70;29.13;;;;;;;;;;6243305;28;20057;-63
2023/10/26 03:18:20;;;;;;;58.38;29.70;;;;;;;;;;6244259;28;21234;-63
2023/10/26 03:21:21;;;;;;;69.95;33.88;;;;;;;;;;6260581;28;20055;-62
2023/10/26 03:24:21;;;;;;;69.50;34.25;;;;;;;;;;6242020;28;20049;-63
2023/10/26 03:27:22;;;;;;;73.20;34.58;;;;;;;;;;6242947;28;20045;-63
2023/10/26 03:30:23;;;;;;;71.18;34.25;;;;;;;;;;6242473;28;21105;-62
2023/10/26 03:33:23;;;;;;;73.18;33.45;;;;;;;;;;6243518;28;20448;-63
2023/10/26 03:36:24;;;;;;;70.65;33.58;;;;;;;;;;6244027;28;20428;-63
2023/10/26 03:39:24;;;;;;;65.97;31.50;;;;;;;;;;6259396;28;20281;-63
2023/10/26 03:42:25;;;;;;;65.55;32.47;;;;;;;;;;6241851;28;20053;-63
2023/10/26 03:45:28;;;;;;;58.15;29.75;;;;;;;;;;6246046;28;20442;-63
2023/10/26 03:48:29;;;;;;;56.47;28.23;;;;;;;;;;6253384;28;20045;-63
2023/10/26 03:51:29;;;;;;;55.08;28.75;;;;;;;;;;6243054;28;20057;-62
2023/10/26 03:54:30;;;;;;;59.08;29.65;;;;;;;;;;6243243;28;20496;-63
2023/10/26 03:57:33;;;;;;;56.88;29.92;;;;;;;;;;6245571;28;20390;-63
2023/10/26 04:00:34;;;;;;;79.82;40.50;;;;;;;;;;6243127;28;20052;-63
2023/10/26 04:03:35;;;;;;;83.70;41.17;;;;;;;;;;6251142;28;20053;-62
2023/10/26 04:06:36;;;;;;;80.50;40.35;;;;;;;;;;6252622;28;20156;-62
2023/10/26 04:09:38;;;;;;;68.03;34.55;;;;;;;;;;6260617;28;20462;-63
2023/10/26 04:12:39;;;;;;;67.03;34.88;;;;;;;;;;6251085;28;20049;-63
2023/10/26 04:15:39;;;;;;;79.65;39.78;;;;;;;;;;6258063;28;20045;-63
2023/10/26 04:18:40;;;;;;;78.32;41.80;;;;;;;;;;6253725;28;20045;-63
2023/10/26 04:21:41;;;;;;;62.33;33.58;;;;;;;;;;6244028;28;20093;-63
2023/10/26 04:24:41;;;;;;;62.35;35.85;;;;;;;;;;6263003;28;20049;-63
2023/10/26 04:27:42;;;;;;;72.72;40.97;;;;;;;;;;6242257;28;20403;-63
2023/10/26 04:30:49;;;;;;;66.45;29.80;;;;;;;;;;6238872;28;20069;-63
2023/10/26 04:33:51;;;;;;;62.40;28.20;;;;;;;;;;6240563;28;20045;-63
2023/10/26 04:36:51;;;;;;;55.22;31.77;;;;;;;;;;6240383;28;20045;-63
2023/10/26 04:39:52;;;;;;;64.07;30.77;;;;;;;;;;6240463;28;20049;-62
2023/10/26 04:42:52;;;;;;;68.93;34.35;;;;;;;;;;6239646;28;20056;-63
2023/10/26 04:45:53;;;;;;;57.65;30.15;;;;;;;;;;6239718;28;20551;-63
2023/10/26 04:48:54;;;;;;;58.75;29.77;;;;;;;;;;6240999;28;20060;-63
2023/10/26 04:51:54;;;;;;;59.70;28.92;;;;;;;;;;6238815;28;20435;-63
2023/10/26 04:54:55;;;;;;;59.67;27.73;;;;;;;;;;6241943;28;20107;-63
2023/10/26 04:57:59;;;;;;;64.28;31.48;;;;;;;;;;6249622;28;20050;-63
2023/10/26 05:01:00;;;;;;;71.82;33.30;;;;;;;;;;6241075;28;20049;-63
2023/10/26 05:04:01;;;;;;;74.35;38.72;;;;;;;;;;6249045;28;20084;-63
2023/10/26 05:07:02;;;;;;;72.85;37.15;;;;;;;;;;6244239;28;20484;-63
2023/10/26 05:10:05;;;;;;;70.10;35.63;;;;;;;;;;6242752;28;20066;-63
2023/10/26 05:13:05;;;;;;;58.08;29.17;;;;;;;;;;6241229;28;20440;-63
2023/10/26 05:16:06;;;;;;;73.60;35.03;;;;;;;;;;6242288;28;20049;-63
2023/10/26 05:19:07;;;;;;;58.88;29.27;;;;;;;;;;6242583;28;20046;-63
2023/10/26 05:22:07;;;;;;;63.63;31.80;;;;;;;;;;6241463;28;20060;-63
2023/10/26 05:25:11;;;;;;;61.50;29.60;;;;;;;;;;6240148;28;20064;-63
2023/10/26 05:28:11;;;;;;;59.10;30.48;;;;;;;;;;6246119;28;20128;-63
2023/10/26 05:31:12;;;;;;;54.88;27.90;;;;;;;;;;6246090;28;20560;-62
2023/10/26 05:34:12;;;;;;;50.95;26.02;;;;;;;;;;6245522;28;20103;-62
2023/10/26 05:37:13;;;;;;;50.97;26.20;;;;;;;;;;6245718;28;20050;-63
2023/10/26 05:40:14;;;;;;;55.10;30.23;;;;;;;;;;6246100;28;20037;-63
2023/10/26 05:43:14;;;;;;;62.95;34.15;;;;;;;;;;6246207;28;20583;-63
2023/10/26 05:46:15;;;;;;;70.10;32.67;;;;;;;;;;6245027;28;20052;-63
2023/10/26 05:49:16;;;;;;;64.35;32.38;;;;;;;;;;6244647;28;20087;-64
2023/10/26 05:52:16;;;;;;;67.05;34.00;;;;;;;;;;6245642;28;20071;-63
2023/10/26 05:55:17;;;;;;;71.13;33.92;;;;;;;;;;6246330;28;20061;-63
2023/10/26 05:58:17;;;;;;;65.28;32.17;;;;;;;;;;6244726;28;20037;-63
2023/10/26 06:01:18;;;;;;;68.03;31.30;;;;;;;;;;6244523;28;20386;-64
2023/10/26 06:04:19;;;;;;;68.95;32.47;;;;;;;;;;6247220;28;20047;-63
2023/10/26 06:07:19;;;;;;;71.05;35.80;;;;;;;;;;6245163;28;20053;-63
2023/10/26 06:10:20;;;;;;;65.13;32.80;;;;;;;;;;6243249;28;20038;-63
2023/10/26 06:13:21;;;;;;;79.03;40.75;;;;;;;;;;6245846;28;20048;-64
2023/10/26 06:16:21;;;;;;;78.65;37.60;;;;;;;;;;6245540;28;20049;-63
2023/10/26 06:19:22;;;;;;;85.28;41.13;;;;;;;;;;6246932;28;20105;-63
2023/10/26 06:22:22;;;;;;;85.55;39.33;;;;;;;;;;6245729;28;20779;-63
2023/10/26 06:25:25;;;;;;;94.80;42.55;;;;;;;;;;6246247;28;20516;-62
2023/10/26 06:28:26;;;;;;;93.07;41.85;;;;;;;;;;6246422;28;20049;-63
2023/10/26 06:31:27;;;;;;;93.82;43.15;;;;;;;;;;6243585;28;20044;-63
2023/10/26 06:34:29;;;;;;;99.07;45.88;;;;;;;;;;6243647;28;20393;-63
2023/10/26 06:37:29;;;;;;;;;;;;;;;;;;6245771;28;20458;-64
2023/10/26 06:40:30;;;;;;;98.72;44.05;;;;;;;;;;6243833;28;19921;-64
2023/10/26 06:43:30;;;;;;;95.60;43.47;;;;;;;;;;6242966;28;20125;-64
2023/10/26 06:46:31;;;;;;;85.13;39.75;;;;;;;;;;6244922;28;20725;-63
2023/10/26 06:49:32;;;;;;;79.80;40.15;;;;;;;;;;6246089;28;20488;-64
2023/10/26 06:52:32;;;;;;;115.85;55.97;;;;;;;;;;6244070;28;20152;-63
2023/10/26 06:55:33;;;;;;;120.18;54.20;;;;;;;;;;6245360;28;20056;-65
2023/10/26 06:58:35;;;;;;;105.80;45.50;;;;;;;;;;6244459;28;20046;-64
2023/10/26 07:01:38;;;;;;;102.28;44.40;;;;;;;;;;6243308;28;20052;-64
2023/10/26 07:04:39;;;;;;;74.60;34.97;;;;;;;;;;6244184;28;20068;-64
2023/10/26 07:07:39;;;;;;;73.75;36.13;;;;;;;;;;6243853;28;20501;-64
2023/10/26 07:10:40;;;;;;;70.88;35.30;;;;;;;;;;6243201;28;20049;-65
2023/10/26 07:13:41;;;;;;;68.03;34.70;;;;;;;;;;6244115;28;20045;-64
2023/10/26 07:16:41;;;;;;;67.78;34.03;;;;;;;;;;6243322;28;20092;-64
2023/10/26 07:19:42;;;;;;;74.63;35.83;;;;;;;;;;6244135;28;20149;-64
2023/10/26 07:22:42;;;;;;;64.07;31.10;;;;;;;;;;6244642;28;20267;-63
2023/10/26 07:25:43;;;;;;;57.35;28.00;;;;;;;;;;6244124;28;20394;-64
2023/10/26 07:28:44;;;;;;;55.92;26.65;;;;;;;;;;6244516;28;20485;-63
2023/10/26 07:31:44;;;;;;;51.75;23.83;;;;;;;;;;6246601;28;20168;-64
2023/10/26 07:34:45;;;;;;;48.20;23.45;;;;;;;;;;6242954;28;20057;-63
2023/10/26 07:37:47;;;;;;;40.88;20.42;;;;;;;;;;6244185;28;20498;-64
2023/10/26 07:40:49;;;;;;;47.08;21.27;;;;;;;;;;6242473;28;20128;-63
2023/10/26 07:43:49;;;;;;;;;;;;;;;;;;6243611;28;20045;-63
2023/10/26 07:46:50;;;;;;;44.38;21.88;;;;;;;;;;6244688;28;21864;-63
2023/10/26 07:49:50;;;;;;;40.60;19.90;;;;;;;;;;6242947;28;20088;-64
2023/10/26 07:52:51;;;;;;;38.63;18.65;;;;;;;;;;6242789;28;20064;-64
2023/10/26 07:55:56;;;;;;;40.47;21.10;;;;;;;;;;6242999;28;20506;-64
2023/10/26 07:58:58;;;;;;;33.55;17.25;;;;;;;;;;6243922;28;20057;-64
2023/10/26 08:01:59;;;;;;;28.88;14.45;;;;;;;;;;6242237;28;20051;-64
2023/10/26 08:05:00;;;;;;;27.75;13.38;;;;;;;;;;6241979;28;20114;-64
2023/10/26 08:08:01;;;;;;;23.65;12.38;;;;;;;;;;6241991;28;20045;-64
2023/10/26 08:11:12;;;;;;;26.98;12.00;;;;;;;;;;6243062;28;20369;-64
2023/10/26 08:14:14;;;;;;;20.80;9.20;;;;;;;;;;6242740;28;20106;-64
2023/10/26 08:17:14;;;;;;;23.40;10.07;;;;;;;;;;6244342;28;20431;-63
2023/10/26 08:20:15;;;;;;;16.00;7.30;;;;;;;;;;6242017;28;20413;-63
2023/10/26 08:23:15;;;;;;;15.85;7.82;;;;;;;;;;6242426;28;20058;-62
2023/10/26 08:26:16;;;;;;;13.55;6.60;;;;;;;;;;6242997;28;20518;-63
2023/10/26 08:29:16;;;;;;;17.90;7.32;;;;;;;;;;6241872;28;20045;-63
2023/10/26 08:32:17;;;;;;;14.68;6.35;;;;;;;;;;6242549;28;20600;-64
2023/10/26 08:35:18;;;;;;;12.27;6.50;;;;;;;;;;6242663;28;20048;-63
2023/10/26 08:38:18;;;;;;;12.40;5.47;;;;;;;;;;6242983;28;20053;-62
2023/10/26 08:41:19;;;;;;;14.40;5.60;;;;;;;;;;6240691;28;20046;-64
2023/10/26 08:44:20;;;;;;;11.30;5.25;;;;;;;;;;6240981;28;20803;-63
2023/10/26 08:47:22;;;;;;;9.90;4.60;;;;;;;;;;6242647;28;20049;-63
2023/10/26 08:50:24;;;;;;;11.40;4.20;;;;;;;;;;6242516;28;20048;-63
2023/10/26 08:53:24;;;;;;;9.67;4.10;;;;;;;;;;6241271;28;20835;-64
2023/10/26 08:56:26;;;;;;;10.68;3.97;;;;;;;;;;6243041;28;20073;-63
2023/10/26 08:59:27;;;;;;;11.35;6.82;;;;;;;;;;6243747;28;20128;-63
2023/10/26 09:02:28;;;;;;;8.50;4.18;;;;;;;;;;6243130;28;20124;-63
2023/10/26 09:05:28;;;;;;;9.63;3.40;;;;;;;;;;6247797;28;20052;-63
2023/10/26 09:08:30;;;;;;;9.57;4.15;;;;;;;;;;6246935;28;20049;-64
2023/10/26 09:11:31;;;;;;;8.00;3.90;;;;;;;;;;6246844;28;20080;-63
2023/10/26 09:14:31;;;;;;;6.85;2.85;;;;;;;;;;6245679;28;20064;-64
2023/10/26 09:17:33;;;;;;;6.75;3.45;;;;;;;;;;6245077;28;20052;-64
2023/10/26 09:20:34;;;;;;;9.98;3.40;;;;;;;;;;6247535;28;20165;-63
2023/10/26 09:23:37;;;;;;;7.75;3.00;;;;;;;;;;6246387;28;20132;-63
2023/10/26 09:26:41;;;;;;;6.53;2.85;;;;;;;;;;6246099;28;20053;-63
2023/10/26 09:29:42;;;;;;;8.32;3.45;;;;;;;;;;6247110;28;20045;-64
2023/10/26 09:32:42;;;;;;;7.20;3.23;;;;;;;;;;6246991;28;20056;-64
2023/10/26 09:35:43;;;;;;;9.93;3.60;;;;;;;;;;6247195;28;20299;-63
2023/10/26 09:38:44;;;;;;;8.90;3.20;;;;;;;;;;6246917;28;20041;-64
2023/10/26 09:41:45;;;;;;;6.90;2.67;;;;;;;;;;6245860;28;20057;-63
2023/10/26 09:44:46;;;;;;;5.75;3.17;;;;;;;;;;6246528;28;20038;-65
2023/10/26 09:47:47;;;;;;;7.57;3.00;;;;;;;;;;6248264;28;20055;-64
2023/10/26 09:50:48;;;;;;;6.90;3.33;;;;;;;;;;6245385;28;20156;-63
2023/10/26 09:53:51;;;;;;;5.95;2.80;;;;;;;;;;6244871;28;20123;-64
2023/10/26 09:56:59;;;;;;;6.82;2.78;;;;;;;;;;6246068;28;20056;-64
2023/10/26 10:00:00;;;;;;;7.25;2.80;;;;;;;;;;6245971;28;20519;-63
2023/10/26 10:03:12;;;;;;;9.23;3.28;;;;;;;;;;6245636;28;20136;-63
2023/10/26 10:06:33;;;;;;;;;;;;;;;;;;6245853;28;20941;-64
2023/10/26 10:10:04;;;;;;;11.30;2.97;;;;;;;;;;6246126;28;19931;-64
2023/10/26 10:13:04;;;;;;;7.22;2.97;;;;;;;;;;6246189;28;20058;-64
2023/10/26 10:16:05;;;;;;;8.90;2.78;;;;;;;;;;6245591;28;20056;-66
2023/10/26 10:19:29;;;;;;;6.82;3.00;;;;;;;;;;6244638;28;20053;-64
2023/10/26 10:22:39;;;;;;;6.53;3.22;;;;;;;;;;6246433;28;20102;-64
2023/10/26 10:26:05;;;;;;;6.70;3.22;;;;;;;;;;6246590;28;20499;-64
2023/10/26 10:29:19;;;;;;;9.57;3.30;;;;;;;;;;6245116;28;20103;-64
2023/10/26 10:32:44;;;;;;;7.40;3.00;;;;;;;;;;6244301;28;20083;-64
2023/10/26 10:35:51;;;;;;;6.80;2.88;;;;;;;;;;6244820;28;20142;-64
2023/10/26 10:39:22;;;;;;;7.57;3.10;;;;;;;;;;6245305;28;20049;-65
2023/10/26 10:42:23;;;;;;;7.00;3.10;;;;;;;;;;6243678;28;20122;-64
2023/10/26 10:45:24;;;;;;;6.47;3.33;;;;;;;;;;6243863;28;20085;-64
2023/10/26 10:48:25;;;;;;;7.22;3.15;;;;;;;;;;6244707;28;20298;-63
2023/10/26 10:51:38;;;;;;;8.32;3.30;;;;;;;;;;6245812;28;20053;-63
2023/10/26 10:54:39;;;;;;;10.02;4.20;;;;;;;;;;6244273;28;20147;-64
2023/10/26 10:57:53;;;;;;;7.82;3.72;;;;;;;;;;6245187;28;20050;-64
2023/10/26 11:00:53;;;;;;;8.52;4.35;;;;;;;;;;6244615;28;20485;-64
2023/10/26 11:04:04;;;;;;;7.80;3.25;;;;;;;;;;6251556;28;20522;-64
2023/10/26 11:07:05;;;;;;;6.43;3.22;;;;;;;;;;6254325;28;20051;-64
2023/10/26 11:10:06;;;;;;;6.75;2.78;;;;;;;;;;6255641;28;20439;-64
2023/10/26 11:13:07;;;;;;;7.27;2.90;;;;;;;;;;6254120;28;20095;-63
2023/10/26 11:16:16;;;;;;;8.73;3.00;;;;;;;;;;6254310;28;20045;-63
2023/10/26 11:19:17;;;;;;;5.85;2.80;;;;;;;;;;6254500;28;20052;-63
2023/10/26 11:22:19;;;;;;;6.72;2.78;;;;;;;;;;6231892;28;20060;-63
2023/10/26 11:25:26;;;;;;;13.30;3.17;;;;;;;;;;6254139;28;20150;-63
2023/10/26 11:28:33;;;;;;;7.05;2.67;;;;;;;;;;6254899;28;20049;-64
2023/10/26 11:31:43;;;;;;;6.97;2.75;;;;;;;;;;6255143;28;20181;-63
2023/10/26 11:35:06;;;;;;;7.38;3.63;;;;;;;;;;6253642;28;20479;-64
2023/10/26 11:38:07;;;;;;;6.45;2.65;;;;;;;;;;6254634;28;20045;-64
2023/10/26 11:41:08;;;;;;;6.50;2.95;;;;;;;;;;6253759;28;20056;-64
2023/10/26 11:44:26;;;;;;;10.20;3.15;;;;;;;;;;6254364;28;20063;-63
2023/10/26 11:47:26;;;;;;;7.03;3.13;;;;;;;;;;6252374;28;20057;-62
2023/10/26 11:50:28;;;;;;;6.53;3.42;;;;;;;;;;6253645;28;20518;-63
2023/10/26 11:53:29;;;;;;;9.10;3.10;;;;;;;;;;6251759;28;20045;-63
2023/10/26 11:56:29;;;;;;;7.03;3.20;;;;;;;;;;6254785;28;20446;-63
2023/10/26 11:59:30;;;;;;;9.88;3.35;;;;;;;;;;6254222;28;20517;-63
2023/10/26 12:02:30;;;;;;;8.00;3.35;;;;;;;;;;6251426;28;20084;-62
2023/10/26 12:05:31;;;;;;;7.30;3.42;;;;;;;;;;6237185;28;20621;-63
2023/10/26 12:08:31;;;;;;;8.68;3.30;;;;;;;;;;6252378;28;20072;-62
2023/10/26 12:11:33;;;;;;;7.45;3.17;;;;;;;;;;6252924;28;20063;-64
2023/10/26 12:14:33;;;;;;;6.82;3.60;;;;;;;;;;6252136;28;20652;-63
2023/10/26 12:17:34;;;;;;;7.53;3.20;;;;;;;;;;6251718;28;20057;-63
2023/10/26 12:20:35;;;;;;;9.55;3.42;;;;;;;;;;6253568;28;20206;-63
2023/10/26 12:23:35;;;;;;;7.00;3.70;;;;;;;;;;6252711;28;20068;-63
2023/10/26 12:26:36;;;;;;;10.68;3.30;;;;;;;;;;6253313;28;20610;-62
2023/10/26 12:29:36;;;;;;;6.95;4.28;;;;;;;;;;6216774;28;20049;-63
2023/10/26 12:32:37;;;;;;;8.13;3.30;;;;;;;;;;6252137;28;20484;-62
2023/10/26 12:35:38;;;;;;;6.20;2.90;;;;;;;;;;6252588;28;20064;-63
2023/10/26 12:38:39;;;;;;;7.65;3.30;;;;;;;;;;6252164;28;20055;-62
2023/10/26 12:41:39;;;;;;;6.38;3.05;;;;;;;;;;6252025;28;20041;-62
2023/10/26 12:44:40;;;;;;;5.55;2.80;;;;;;;;;;6250934;28;20040;-63
2023/10/26 12:47:40;;;;;;;7.13;3.10;;;;;;;;;;6252277;28;20060;-62
2023/10/26 12:50:41;;;;;;;6.60;3.08;;;;;;;;;;6252758;28;20052;-63
2023/10/26 12:53:42;;;;;;;7.68;2.95;;;;;;;;;;6251424;28;20989;-63
2023/10/26 12:56:42;;;;;;;8.98;3.85;;;;;;;;;;6255150;28;20067;-62
2023/10/26 12:59:43;;;;;;;9.30;5.00;;;;;;;;;;6251574;28;20432;-63
2023/10/26 13:02:45;;;;;;;7.38;3.38;;;;;;;;;;6248697;28;20598;-62
2023/10/26 13:05:46;;;;;;;8.65;3.03;;;;;;;;;;6250632;28;20045;-62
2023/10/26 13:08:46;;;;;;;7.70;3.00;;;;;;;;;;6252380;28;20045;-62
2023/10/26 13:11:47;;;;;;;7.13;3.05;;;;;;;;;;6253649;28;20056;-62
2023/10/26 13:14:47;;;;;;;6.78;2.83;;;;;;;;;;6249483;28;20087;-62
2023/10/26 13:17:48;;;;;;;6.22;3.28;;;;;;;;;;6250590;28;20523;-63
2023/10/26 13:20:49;;;;;;;6.47;3.20;;;;;;;;;;6253252;28;20049;-62
2023/10/26 13:23:50;;;;;;;7.88;3.75;;;;;;;;;;6251573;28;20096;-62
2023/10/26 13:26:50;;;;;;;8.30;3.38;;;;;;;;;;6249323;28;20072;-62
2023/10/26 13:29:51;;;;;;;10.52;3.10;;;;;;;;;;6252187;28;20602;-62
2023/10/26 13:32:52;;;;;;;7.15;3.00;;;;;;;;;;6250143;28;20566;-62
2023/10/26 13:35:55;;;;;;;9.07;3.08;;;;;;;;;;6253632;28;20064;-62
2023/10/26 13:38:56;;;;;;;6.93;3.40;;;;;;;;;;6251649;28;20052;-63
2023/10/26 13:41:56;;;;;;;9.13;3.20;;;;;;;;;;6239260;28;20410;-63
2023/10/26 13:44:57;;;;;;;9.00;3.30;;;;;;;;;;6250093;28;20411;-62
2023/10/26 13:47:59;;;;;;;7.88;3.13;;;;;;;;;;6254358;28;20438;-63
2023/10/26 13:51:00;;;;;;;8.20;3.00;;;;;;;;;;6258350;28;20089;-62
2023/10/26 13:54:01;;;;;;;12.05;3.13;;;;;;;;;;6257469;28;20746;-62
2023/10/26 13:57:02;;;;;;;6.70;3.40;;;;;;;;;;6256834;28;20048;-62
2023/10/26 14:00:06;;;;;;;8.85;3.40;;;;;;;;;;6255358;28;20522;-63
2023/10/26 14:03:07;;;;;;;9.23;3.42;;;;;;;;;;6255677;28;20080;-62
2023/10/26 14:06:10;;;;;;;8.60;3.00;;;;;;;;;;6257645;28;20454;-62
2023/10/26 14:09:10;;;;;;;9.68;3.10;;;;;;;;;;6255491;28;20418;-62
2023/10/26 14:12:13;;;;;;;10.15;3.13;;;;;;;;;;6255486;28;20044;-62
2023/10/26 14:15:14;;;;;;;8.05;4.15;;;;;;;;;;6254544;28;20049;-62
2023/10/26 14:18:14;;;;;;;6.07;3.10;;;;;;;;;;6255993;28;20041;-62
2023/10/26 14:21:16;;;;;;;8.98;2.97;;;;;;;;;;6256361;28;20041;-62
2023/10/26 14:24:17;;;;;;;7.60;3.88;;;;;;;;;;6256241;28;20052;-62
2023/10/26 14:27:17;;;;;;;6.47;3.00;;;;;;;;;;6255202;28;20049;-62
2023/10/26 14:30:18;;;;;;;11.90;3.03;;;;;;;;;;6253643;28;20087;-62
2023/10/26 14:33:18;;;;;;;22.25;8.90;;;;;;;;;;6255659;28;20052;-62
2023/10/26 14:36:19;;;;;;;8.20;2.92;;;;;;;;;;6255266;28;20419;-62
2023/10/26 14:39:20;;;;;;;6.60;3.28;;;;;;;;;;6256420;28;20513;-63
2023/10/26 14:42:21;;;;;;;10.48;5.05;;;;;;;;;;6254614;28;20534;-62
2023/10/26 14:45:24;;;;;;;6.95;3.20;;;;;;;;;;6256067;28;20055;-62
2023/10/26 14:48:24;;;;;;;8.45;5.22;;;;;;;;;;6252396;28;20049;-62
2023/10/26 14:51:26;;;;;;;9.73;4.07;;;;;;;;;;6253289;28;20130;-62
2023/10/26 14:54:26;;;;;;;9.88;5.10;;;;;;;;;;6252401;28;20049;-62
2023/10/26 14:57:27;;;;;;;12.48;5.15;;;;;;;;;;6249499;28;20563;-62
2023/10/26 15:00:29;;;;;;;13.77;3.92;;;;;;;;;;6252290;28;20045;-62
2023/10/26 15:03:29;;;;;;;14.88;5.70;;;;;;;;;;6253258;28;20051;-62
2023/10/26 15:06:30;;;;;;;9.07;4.35;;;;;;;;;;6255534;28;20052;-62
2023/10/26 15:09:33;;;;;;;8.38;3.72;;;;;;;;;;6254686;28;20045;-62
2023/10/26 15:12:33;;;;;;;23.20;10.75;;;;;;;;;;6253254;28;20060;-62
2023/10/26 15:15:34;;;;;;;9.20;4.57;;;;;;;;;;6254727;28;20159;-63
2023/10/26 15:18:36;;;;;;;5.43;3.13;;;;;;;;;;6250440;28;20052;-62
2023/10/26 15:21:37;;;;;;;11.45;6.28;;;;;;;;;;6254376;28;20055;-62
2023/10/26 15:24:37;;;;;;;9.07;5.00;;;;;;;;;;6253977;28;20053;-62
2023/10/26 15:27:38;;;;;;;9.73;4.28;;;;;;;;;;6249657;28;20503;-62
2023/10/26 15:30:39;;;;;;;14.85;8.05;;;;;;;;;;6254198;28;20061;-63
2023/10/26 15:33:39;;;;;;;9.02;4.28;;;;;;;;;;6253261;28;20521;-61
2023/10/26 15:36:40;;;;;;;10.98;4.65;;;;;;;;;;6255031;28;20506;-62
2023/10/26 15:39:41;;;;;;;19.43;8.40;;;;;;;;;;6254703;28;20048;-62
2023/10/26 15:42:42;;;;;;;17.08;9.90;;;;;;;;;;6251369;28;20535;-63
2023/10/26 15:45:47;;;;;;;18.52;12.02;;;;;;;;;;6250748;28;20056;-61
2023/10/26 15:48:48;;;;;;;23.65;13.32;;;;;;;;;;6254648;28;20057;-63
2023/10/26 15:51:50;;;;;;;17.83;9.88;;;;;;;;;;6254092;28;20147;-64
2023/10/26 15:54:50;;;;;;;11.13;5.15;;;;;;;;;;6256515;28;20063;-62
2023/10/26 15:57:51;;;;;;;14.43;5.57;;;;;;;;;;6257807;28;20547;-63
2023/10/26 16:01:01;;;;;;;11.32;5.80;;;;;;;;;;6255751;28;20407;-62
2023/10/26 16:04:02;;;;;;;13.32;6.05;;;;;;;;;;6262126;28;20049;-62
2023/10/26 16:07:03;;;;;;;12.82;6.90;;;;;;;;;;6239289;28;20490;-62
2023/10/26 16:10:04;;;;;;;10.23;4.97;;;;;;;;;;6255758;28;20041;-63
2023/10/26 16:13:05;;;;;;;11.57;3.95;;;;;;;;;;6253567;28;20041;-61
2023/10/26 16:16:06;;;;;;;9.38;3.80;;;;;;;;;;6254779;28;20114;-60
2023/10/26 16:19:06;;;;;;;11.27;5.20;;;;;;;;;;6255254;28;20534;-62
2023/10/26 16:22:08;;;;;;;11.93;4.80;;;;;;;;;;6254484;28;20060;-61
2023/10/26 16:25:08;;;;;;;9.90;4.75;;;;;;;;;;6256669;28;20117;-61
2023/10/26 16:28:12;;;;;;;9.60;4.32;;;;;;;;;;6256543;28;20053;-60
2023/10/26 16:31:13;;;;;;;10.85;4.65;;;;;;;;;;6255603;28;20080;-62
2023/10/26 16:34:14;;;;;;;9.60;4.85;;;;;;;;;;6255115;28;20123;-62
2023/10/26 16:37:14;;;;;;;14.45;5.53;;;;;;;;;;6257455;28;20045;-62
2023/10/26 16:40:16;;;;;;;25.60;10.90;;;;;;;;;;6255018;28;20064;-62
2023/10/26 16:43:18;;;;;;;19.48;8.18;;;;;;;;;;6253694;28;20574;-63
2023/10/26 16:46:20;;;;;;;19.48;8.88;;;;;;;;;;6257568;28;20400;-63
2023/10/26 16:49:20;;;;;;;19.38;10.02;;;;;;;;;;6256299;28;20583;-65
2023/10/26 16:52:21;;;;;;;73.40;44.95;;;;;;;;;;6253287;28;20044;-65
2023/10/26 16:55:21;;;;;;;55.20;29.95;;;;;;;;;;6257074;28;20939;-63
2023/10/26 16:58:22;;;;;;;19.80;10.70;;;;;;;;;;6241460;28;20055;-64
2023/10/26 17:01:22;;;;;;;43.20;23.58;;;;;;;;;;6254850;28;20057;-63
2023/10/26 17:04:23;;;;;;;41.45;22.67;;;;;;;;;;6254021;28;20435;-62
2023/10/26 17:07:24;;;;;;;26.42;14.52;;;;;;;;;;6255494;28;20415;-62
2023/10/26 17:10:25;;;;;;;16.10;9.23;;;;;;;;;;6254406;28;20162;-62
2023/10/26 17:13:26;;;;;;;16.50;8.93;;;;;;;;;;6234588;28;20053;-63
2023/10/26 17:16:27;;;;;;;60.72;21.63;;;;;;;;;;6256132;28;20144;-62
2023/10/26 17:19:27;;;;;;;54.05;23.80;;;;;;;;;;6255016;28;20052;-62
2023/10/26 17:22:28;;;;;;;46.95;28.40;;;;;;;;;;6251314;28;20518;-61
2023/10/26 17:25:32;;;;;;;24.05;13.05;;;;;;;;;;6261779;28;21310;-61
2023/10/26 17:28:33;;;;;;;19.90;8.63;;;;;;;;;;6259180;28;20053;-62
2023/10/26 17:31:33;;;;;;;21.13;10.85;;;;;;;;;;6255667;28;20041;-61
2023/10/26 17:34:34;;;;;;;14.90;7.85;;;;;;;;;;6257307;28;20139;-61
2023/10/26 17:37:35;;;;;;;12.57;6.22;;;;;;;;;;6258940;28;20060;-60
2023/10/26 17:40:36;;;;;;;13.80;6.32;;;;;;;;;;6257750;28;20471;-61
2023/10/26 17:43:36;;;;;;;18.00;8.00;;;;;;;;;;6254540;28;20053;-65
2023/10/26 17:46:37;;;;;;;19.73;9.05;;;;;;;;;;6258759;28;20055;-64
2023/10/26 17:49:38;;;;;;;28.15;15.10;;;;;;;;;;6259094;28;20056;-65
2023/10/26 17:52:39;;;;;;;48.55;24.25;;;;;;;;;;6256187;28;20049;-65